createdAt,value
2023-03-08T00:01:55.102Z,72.92
2023-03-08T00:06:57.339Z,72.13
2023-03-08T00:12:00.396Z,72.47
2023-03-08T00:17:02.891Z,72.11
2023-03-08T00:22:05.089Z,70.92
2023-03-08T00:27:06.694Z,69.82
2023-03-08T00:32:08.433Z,70.98
2023-03-08T00:37:10.077Z,72.53
2023-03-08T00:42:12.856Z,71.81
2023-03-08T00:47:15.582Z,72.29
2023-03-08T00:52:17.670Z,71.81
2023-03-08T00:57:19.350Z,71.47
2023-03-08T01:02:21.126Z,71.55
2023-03-08T01:07:24.084Z,72.13
2023-03-08T01:12:25.705Z,72.73
2023-03-08T01:17:27.879Z,72.94
2023-03-08T01:22:29.536Z,73.46
2023-03-08T01:27:32.399Z,73.66
2023-03-08T01:32:34.792Z,72.88
2023-03-08T01:37:36.720Z,71.96
2023-03-08T01:42:40.425Z,72.21
2023-03-08T01:47:42.041Z,72.20
2023-03-08T01:52:59.634Z,73.31
2023-03-08T01:58:01.410Z,73.80
2023-03-08T02:03:10.896Z,74.01
2023-03-08T02:08:12.777Z,73.98
2023-03-08T02:13:16.454Z,73.77
2023-03-08T02:18:19.296Z,74.55
2023-03-08T02:23:23.592Z,74.67
2023-03-08T02:28:26.808Z,75.46
2023-03-08T02:33:28.470Z,75.43
2023-03-08T02:38:32.288Z,75.30
2023-03-08T02:43:34.595Z,76.07
2023-03-08T02:48:36.556Z,76.40
2023-03-08T02:53:38.845Z,74.93
2023-03-08T02:58:40.531Z,76.30
2023-03-08T03:03:43.138Z,76.76
2023-03-08T03:08:45.096Z,76.64
2023-03-08T03:13:47.273Z,76.27
2023-03-08T03:18:52.659Z,76.94
2023-03-08T03:23:55.438Z,76.26
2023-03-08T03:29:03.711Z,76.40
2023-03-08T03:34:09.523Z,77.65
2023-03-08T03:39:11.898Z,78.03
2023-03-08T03:44:15.524Z,78.20
2023-03-08T03:49:19.557Z,78.06
2023-03-08T03:54:22.266Z,78.16
2023-03-08T03:59:26.771Z,78.40
2023-03-08T04:04:29.100Z,79.13
2023-03-08T04:09:30.930Z,79.06
2023-03-08T04:14:41.758Z,79.30
2023-03-08T04:19:49.829Z,79.85
2023-03-08T04:24:52.578Z,79.41
2023-03-08T04:30:04.557Z,79.45
2023-03-08T04:35:07.433Z,79.95
2023-03-08T04:40:13.272Z,80.59
2023-03-08T04:45:31.230Z,81.13
2023-03-08T04:50:35.571Z,81.03
2023-03-08T04:55:38.137Z,81.90
2023-03-08T05:00:40.470Z,81.51
2023-03-08T05:05:52.090Z,82.19
2023-03-08T05:11:01.303Z,81.19
2023-03-08T05:16:08.378Z,81.14
2023-03-08T05:21:16.113Z,80.93
2023-03-08T05:26:19.351Z,80.41
2023-03-08T05:31:23.038Z,81.15
2023-03-08T05:36:27.524Z,80.08
2023-03-08T05:41:31.970Z,80.46
2023-03-08T05:46:35.195Z,80.22
2023-03-08T05:51:37.919Z,79.54
2023-03-08T05:56:40.272Z,79.57
2023-03-08T06:01:48.892Z,80.32
2023-03-08T06:07:01.086Z,80.15
2023-03-08T06:12:09.185Z,80.06
2023-03-08T06:17:11.455Z,79.44
2023-03-08T06:22:17.809Z,79.74
2023-03-08T06:27:20.679Z,80.48
2023-03-08T06:32:24.259Z,80.14
2023-03-08T06:37:26.922Z,80.62
2023-03-08T06:42:40.629Z,80.59
2023-03-08T06:47:45.230Z,81.37
2023-03-08T06:52:48.151Z,81.23
2023-03-08T06:57:55.577Z,82.04
2023-03-08T07:02:57.210Z,81.71
2023-03-08T07:07:58.861Z,81.61
2023-03-08T07:13:00.710Z,81.38
2023-03-08T07:18:02.307Z,81.98
2023-03-08T07:23:04.213Z,81.55
2023-03-08T07:28:06.134Z,81.51
2023-03-08T07:33:07.754Z,82.17
2023-03-08T07:38:14.860Z,83.39
2023-03-08T07:43:16.533Z,82.71
2023-03-08T07:48:29.968Z,82.42
2023-03-08T07:53:31.697Z,82.27
2023-03-08T07:58:33.418Z,82.21
2023-03-08T08:03:35.128Z,82.51
2023-03-08T08:08:36.825Z,83.08
2023-03-08T08:13:38.490Z,81.82
2023-03-08T08:18:40.415Z,82.85
2023-03-08T08:24:05.067Z,81.31
2023-03-08T08:29:07.997Z,80.75
2023-03-08T08:34:18.357Z,81.17
2023-03-08T08:39:27.020Z,79.86
2023-03-08T08:44:28.759Z,80.29
2023-03-08T08:49:30.381Z,80.06
2023-03-08T08:54:33.843Z,79.55
2023-03-08T08:59:35.625Z,77.38
2023-03-08T09:04:37.332Z,76.90
2023-03-08T09:09:38.986Z,77.47
2023-03-08T09:14:40.633Z,75.88
2023-03-08T09:19:42.349Z,75.82
2023-03-08T09:24:45.867Z,73.77
2023-03-08T09:29:47.477Z,74.18
2023-03-08T09:34:49.241Z,73.68
2023-03-08T09:39:51.753Z,71.80
2023-03-08T09:45:21.297Z,70.44
2023-03-08T09:50:33.532Z,69.95
2023-03-08T09:55:44.597Z,67.68
2023-03-08T10:00:46.899Z,67.62
2023-03-08T10:06:17.056Z,65.79
2023-03-08T10:11:28.612Z,67.57
2023-03-08T10:16:45.594Z,68.16
2023-03-08T10:21:48.056Z,70.84
2023-03-08T10:26:49.718Z,71.05
2023-03-08T10:31:51.449Z,69.37
2023-03-08T10:36:58.630Z,68.75
2023-03-08T10:42:06.339Z,69.54
2023-03-08T10:47:17.213Z,69.55
2023-03-08T10:52:29.019Z,70.33
2023-03-08T10:57:31.287Z,70.09
2023-03-08T11:02:33.157Z,69.82
2023-03-08T11:07:35.531Z,69.42
2023-03-08T11:12:37.882Z,69.37
2023-03-08T11:17:47.574Z,69.91
2023-03-08T11:23:12.247Z,69.88
2023-03-08T11:28:29.588Z,69.52
2023-03-08T11:33:37.559Z,70.04
2023-03-08T11:38:39.661Z,70.08
2023-03-08T11:44:09.414Z,69.40
2023-03-08T11:49:13.712Z,66.99
2023-03-08T11:54:33.914Z,66.26
2023-03-08T11:59:40.006Z,64.87
2023-03-08T12:05:09.205Z,64.22
2023-03-08T12:10:13.766Z,64.46
2023-03-08T12:15:26.731Z,64.79
2023-03-08T12:20:35.282Z,64.86
2023-03-08T12:25:40.604Z,64.57
2023-03-08T12:30:51.142Z,65.35
2023-03-08T12:36:01.582Z,65.54
2023-03-08T12:41:05.444Z,64.86
2023-03-08T12:46:09.964Z,65.30
2023-03-08T12:51:14.678Z,63.87
2023-03-08T12:56:29.805Z,64.91
2023-03-08T13:01:40.356Z,63.91
2023-03-08T13:07:06.480Z,63.98
2023-03-08T13:12:16.895Z,64.35
2023-03-08T13:17:30.500Z,64.54
2023-03-08T13:22:55.355Z,64.88
2023-03-08T13:28:13.366Z,66.32
2023-03-08T13:33:36.644Z,65.14
2023-03-08T13:38:38.347Z,65.30
2023-03-08T13:43:39.969Z,65.44
2023-03-08T13:48:44.299Z,65.17
2023-03-08T13:53:46.741Z,65.00
2023-03-08T13:58:50.662Z,64.60
2023-03-08T14:03:56.181Z,64.41
2023-03-08T14:09:03.757Z,62.79
2023-03-08T14:14:10.502Z,64.15
2023-03-08T14:19:15.264Z,64.38
2023-03-08T14:24:24.229Z,63.91
2023-03-08T14:29:36.593Z,63.84
2023-03-08T14:34:46.506Z,61.89
2023-03-08T14:39:52.114Z,61.04
2023-03-08T14:45:00.165Z,62.38
2023-03-08T14:50:20.207Z,62.14
2023-03-08T14:55:26.806Z,62.69
2023-03-08T15:00:29.835Z,62.58
2023-03-08T15:05:31.957Z,63.02
2023-03-08T15:10:39.973Z,63.76
2023-03-08T15:15:42.138Z,63.58
2023-03-08T15:20:46.171Z,64.34
2023-03-08T15:25:48.259Z,64.42
2023-03-08T15:30:52.896Z,63.45
2023-03-08T15:35:54.885Z,64.59
2023-03-08T15:40:56.548Z,65.55
2023-03-08T15:45:58.216Z,66.35
2023-03-08T15:51:00.096Z,66.93
2023-03-08T15:56:01.772Z,67.11
2023-03-08T16:01:05.015Z,65.97
2023-03-08T16:06:10.983Z,66.84
2023-03-08T16:11:16.029Z,65.80
2023-03-08T16:16:18.314Z,65.08
2023-03-08T16:21:20.045Z,65.53
2023-03-08T16:26:21.921Z,64.84
2023-03-08T16:31:23.816Z,64.43
2023-03-08T16:36:25.559Z,65.23
2023-03-08T16:41:29.307Z,65.97
2023-03-08T16:46:30.988Z,65.25
2023-03-08T16:51:32.789Z,63.80
2023-03-08T16:56:34.681Z,65.07
2023-03-08T17:01:36.314Z,65.16
2023-03-08T17:06:39.084Z,66.19
2023-03-08T17:11:42.485Z,66.05
2023-03-08T17:16:44.190Z,65.91
2023-03-08T17:21:45.933Z,66.85
2023-03-08T17:26:50.739Z,67.19
2023-03-08T17:31:52.574Z,67.61
2023-03-08T17:36:54.332Z,68.50
2023-03-08T17:41:56.036Z,68.88
2023-03-08T17:46:57.710Z,69.19
2023-03-08T17:51:59.602Z,68.90
2023-03-08T17:57:01.444Z,70.05
2023-03-08T18:02:03.257Z,70.95
2023-03-08T18:07:06.015Z,71.64
2023-03-08T18:12:11.655Z,71.85
2023-03-08T18:17:13.343Z,72.54
2023-03-08T18:22:15.644Z,73.16
2023-03-08T18:27:17.303Z,73.90
2023-03-08T18:32:19.060Z,75.52
2023-03-08T18:37:20.747Z,77.16
2023-03-08T18:42:22.402Z,77.86
2023-03-08T18:47:24.094Z,78.99
2023-03-08T18:52:25.860Z,78.81
2023-03-08T18:57:27.479Z,79.70
2023-03-08T19:02:29.264Z,80.71
2023-03-08T19:07:31.002Z,81.35
2023-03-08T19:12:33.736Z,81.64
2023-03-08T19:17:35.561Z,81.79
2023-03-08T19:22:37.967Z,81.83
2023-03-08T19:27:39.606Z,81.44
2023-03-08T19:32:42.723Z,81.66
2023-03-08T19:37:44.522Z,81.21
2023-03-08T19:42:46.316Z,80.92
2023-03-08T19:47:49.516Z,80.81
2023-03-08T19:52:51.181Z,80.40
2023-03-08T19:57:52.829Z,79.72
2023-03-08T20:02:54.711Z,80.20
2023-03-08T20:07:56.324Z,80.55
2023-03-08T20:12:58.018Z,80.76
2023-03-08T20:17:59.892Z,82.18
2023-03-08T20:23:01.534Z,83.15
2023-03-08T20:28:03.429Z,83.03
2023-03-08T20:33:05.554Z,84.00
2023-03-08T20:38:07.228Z,84.97
2023-03-08T20:43:11.016Z,85.58
2023-03-08T20:48:12.602Z,86.99
2023-03-08T20:53:14.623Z,86.22
2023-03-08T20:58:16.241Z,87.03
2023-03-08T21:03:18.107Z,88.71
2023-03-08T21:08:20.039Z,89.21
2023-03-08T21:13:21.687Z,89.93
2023-03-08T21:18:23.369Z,89.76
2023-03-08T21:23:25.572Z,89.53
2023-03-08T21:28:27.216Z,90.27
2023-03-08T21:33:28.839Z,90.45
2023-03-08T21:38:30.529Z,90.98
2023-03-08T21:43:32.293Z,91.80
2023-03-08T21:48:34.038Z,89.24
2023-03-08T21:53:35.811Z,90.16
2023-03-08T21:58:37.992Z,90.88
2023-03-08T22:03:39.873Z,91.06
2023-03-08T22:08:41.569Z,91.10
2023-03-08T22:13:43.408Z,88.26
2023-03-08T22:18:45.932Z,87.33
2023-03-08T22:23:55.523Z,86.98
2023-03-08T22:28:57.269Z,86.87
2023-03-08T22:33:58.911Z,86.60
2023-03-08T22:39:00.547Z,84.84
2023-03-08T22:44:04.120Z,85.09
2023-03-08T22:49:07.290Z,84.37
2023-03-08T22:54:15.729Z,85.57
2023-03-08T22:59:17.827Z,85.82
2023-03-08T23:04:20.237Z,84.96
2023-03-08T23:09:22.293Z,86.02
2023-03-08T23:14:23.992Z,84.82
2023-03-08T23:19:25.813Z,86.07
2023-03-08T23:24:27.425Z,85.09
2023-03-08T23:29:29.154Z,83.95
2023-03-08T23:34:30.820Z,83.59
2023-03-08T23:39:34.029Z,84.08
2023-03-08T23:44:35.837Z,84.24
2023-03-08T23:49:37.593Z,85.13
2023-03-08T23:54:39.346Z,84.80
2023-03-08T23:59:40.988Z,83.79
